sensor_id;sensor_type;location;lat;lon;timestamp;P1;durP1;ratioP1;P2;durP2;ratioP2
69714;SDS011;56981;53.532;49.398;2022-11-24T00:00:01;2.80;;;2.15;;
69714;SDS011;56981;53.532;49.398;2022-11-24T00:02:28;2.88;;;1.80;;
69714;SDS011;56981;53.532;49.398;2022-11-24T00:04:54;2.25;;;1.35;;
69714;SDS011;56981;53.532;49.398;2022-11-24T00:07:20;2.70;;;1.58;;
69714;SDS011;56981;53.532;49.398;2022-11-24T00:09:46;2.20;;;1.38;;
69714;SDS011;56981;53.532;49.398;2022-11-24T00:12:12;2.20;;;1.67;;
69714;SDS011;56981;53.532;49.398;2022-11-24T00:14:38;2.47;;;1.70;;
69714;SDS011;56981;53.532;49.398;2022-11-24T00:17:04;2.17;;;1.70;;
69714;SDS011;56981;53.532;49.398;2022-11-24T00:19:31;3.30;;;1.92;;
69714;SDS011;56981;53.532;49.398;2022-11-24T00:21:57;2.13;;;1.67;;
69714;SDS011;56981;53.532;49.398;2022-11-24T00:24:23;1.83;;;1.52;;
69714;SDS011;56981;53.532;49.398;2022-11-24T00:26:49;2.13;;;1.40;;
69714;SDS011;56981;53.532;49.398;2022-11-24T00:29:15;3.20;;;1.85;;
69714;SDS011;56981;53.532;49.398;2022-11-24T00:31:41;2.83;;;1.80;;
69714;SDS011;56981;53.532;49.398;2022-11-24T00:34:11;2.22;;;1.73;;
69714;SDS011;56981;53.532;49.398;2022-11-24T00:36:38;3.35;;;1.95;;
69714;SDS011;56981;53.532;49.398;2022-11-24T00:39:12;3.20;;;1.80;;
69714;SDS011;56981;53.532;49.398;2022-11-24T00:41:39;2.63;;;1.88;;
69714;SDS011;56981;53.532;49.398;2022-11-24T00:44:06;2.92;;;1.98;;
69714;SDS011;56981;53.532;49.398;2022-11-24T00:46:33;3.33;;;2.10;;
69714;SDS011;56981;53.532;49.398;2022-11-24T00:48:59;2.63;;;1.55;;
69714;SDS011;56981;53.532;49.398;2022-11-24T00:51:26;2.38;;;1.80;;
69714;SDS011;56981;53.532;49.398;2022-11-24T00:53:55;2.42;;;1.70;;
69714;SDS011;56981;53.532;49.398;2022-11-24T00:56:22;2.75;;;1.83;;
69714;SDS011;56981;53.532;49.398;2022-11-24T00:58:49;3.00;;;1.58;;
69714;SDS011;56981;53.532;49.398;2022-11-24T01:01:17;2.35;;;1.77;;
69714;SDS011;56981;53.532;49.398;2022-11-24T01:03:45;2.47;;;1.65;;
69714;SDS011;56981;53.532;49.398;2022-11-24T01:06:13;2.38;;;1.80;;
69714;SDS011;56981;53.532;49.398;2022-11-24T01:08:41;3.35;;;2.15;;
69714;SDS011;56981;53.532;49.398;2022-11-24T01:11:08;2.38;;;1.58;;
69714;SDS011;56981;53.532;49.398;2022-11-24T01:13:39;4.20;;;1.77;;
69714;SDS011;56981;53.532;49.398;2022-11-24T01:16:13;3.97;;;2.10;;
69714;SDS011;56981;53.532;49.398;2022-11-24T01:18:44;2.70;;;1.90;;
69714;SDS011;56981;53.532;49.398;2022-11-24T01:21:11;2.67;;;1.75;;
69714;SDS011;56981;53.532;49.398;2022-11-24T01:23:37;2.70;;;2.20;;
69714;SDS011;56981;53.532;49.398;2022-11-24T01:26:07;3.10;;;1.92;;
69714;SDS011;56981;53.532;49.398;2022-11-24T01:28:35;3.72;;;2.22;;
69714;SDS011;56981;53.532;49.398;2022-11-24T01:31:03;2.85;;;2.05;;
69714;SDS011;56981;53.532;49.398;2022-11-24T01:33:31;2.15;;;1.90;;
69714;SDS011;56981;53.532;49.398;2022-11-24T01:35:58;2.75;;;1.65;;
69714;SDS011;56981;53.532;49.398;2022-11-24T01:38:25;2.10;;;1.52;;
69714;SDS011;56981;53.532;49.398;2022-11-24T01:43:48;3.95;;;1.77;;
69714;SDS011;56981;53.532;49.398;2022-11-24T01:48:44;3.10;;;1.85;;
69714;SDS011;56981;53.532;49.398;2022-11-24T01:51:24;3.25;;;1.75;;
69714;SDS011;56981;53.532;49.398;2022-11-24T01:53:55;4.05;;;2.00;;
69714;SDS011;56981;53.532;49.398;2022-11-24T01:56:25;3.58;;;1.98;;
69714;SDS011;56981;53.532;49.398;2022-11-24T01:58:54;4.05;;;2.30;;
69714;SDS011;56981;53.532;49.398;2022-11-24T02:01:23;6.15;;;2.70;;
69714;SDS011;56981;53.532;49.398;2022-11-24T02:03:50;3.38;;;2.55;;
69714;SDS011;56981;53.532;49.398;2022-11-24T02:06:18;3.00;;;2.10;;
69714;SDS011;56981;53.532;49.398;2022-11-24T02:11:22;2.70;;;1.77;;
69714;SDS011;56981;53.532;49.398;2022-11-24T02:13:50;5.20;;;2.33;;
69714;SDS011;56981;53.532;49.398;2022-11-24T02:16:19;3.40;;;2.10;;
69714;SDS011;56981;53.532;49.398;2022-11-24T02:18:45;2.47;;;1.90;;
69714;SDS011;56981;53.532;49.398;2022-11-24T02:21:12;2.95;;;1.88;;
69714;SDS011;56981;53.532;49.398;2022-11-24T02:23:43;2.47;;;1.80;;
69714;SDS011;56981;53.532;49.398;2022-11-24T02:26:39;2.60;;;1.98;;
69714;SDS011;56981;53.532;49.398;2022-11-24T02:29:08;3.42;;;1.95;;
69714;SDS011;56981;53.532;49.398;2022-11-24T02:31:36;1.92;;;1.45;;
69714;SDS011;56981;53.532;49.398;2022-11-24T02:34:04;3.05;;;1.92;;
69714;SDS011;56981;53.532;49.398;2022-11-24T02:36:30;3.75;;;2.30;;
69714;SDS011;56981;53.532;49.398;2022-11-24T02:38:56;4.35;;;1.92;;
69714;SDS011;56981;53.532;49.398;2022-11-24T02:41:22;2.28;;;1.50;;
69714;SDS011;56981;53.532;49.398;2022-11-24T02:43:55;3.47;;;1.60;;
69714;SDS011;56981;53.532;49.398;2022-11-24T02:46:26;2.38;;;1.55;;
69714;SDS011;56981;53.532;49.398;2022-11-24T02:48:52;2.65;;;1.88;;
69714;SDS011;56981;53.532;49.398;2022-11-24T02:51:18;3.55;;;1.70;;
69714;SDS011;56981;53.532;49.398;2022-11-24T02:53:44;2.17;;;1.73;;
69714;SDS011;56981;53.532;49.398;2022-11-24T02:56:10;3.55;;;1.90;;
69714;SDS011;56981;53.532;49.398;2022-11-24T02:58:37;4.47;;;2.30;;
69714;SDS011;56981;53.532;49.398;2022-11-24T03:01:03;6.68;;;1.88;;
69714;SDS011;56981;53.532;49.398;2022-11-24T03:03:29;3.45;;;2.00;;
69714;SDS011;56981;53.532;49.398;2022-11-24T03:05:55;3.70;;;2.25;;
69714;SDS011;56981;53.532;49.398;2022-11-24T03:08:22;3.53;;;1.83;;
69714;SDS011;56981;53.532;49.398;2022-11-24T03:10:48;3.83;;;2.08;;
69714;SDS011;56981;53.532;49.398;2022-11-24T03:13:14;4.25;;;2.47;;
69714;SDS011;56981;53.532;49.398;2022-11-24T03:15:40;5.28;;;2.58;;
69714;SDS011;56981;53.532;49.398;2022-11-24T03:18:07;4.35;;;2.42;;
69714;SDS011;56981;53.532;49.398;2022-11-24T03:20:33;4.38;;;2.45;;
69714;SDS011;56981;53.532;49.398;2022-11-24T03:22:59;3.75;;;2.38;;
69714;SDS011;56981;53.532;49.398;2022-11-24T03:25:25;4.65;;;2.63;;
69714;SDS011;56981;53.532;49.398;2022-11-24T03:27:51;4.68;;;2.90;;
69714;SDS011;56981;53.532;49.398;2022-11-24T03:30:17;3.97;;;2.45;;
69714;SDS011;56981;53.532;49.398;2022-11-24T03:32:43;3.92;;;2.35;;
69714;SDS011;56981;53.532;49.398;2022-11-24T03:35:09;4.50;;;2.72;;
69714;SDS011;56981;53.532;49.398;2022-11-24T03:37:36;4.28;;;2.72;;
69714;SDS011;56981;53.532;49.398;2022-11-24T03:40:18;5.10;;;2.92;;
69714;SDS011;56981;53.532;49.398;2022-11-24T03:42:44;4.63;;;2.50;;
69714;SDS011;56981;53.532;49.398;2022-11-24T03:45:10;4.05;;;2.28;;
69714;SDS011;56981;53.532;49.398;2022-11-24T03:47:36;4.25;;;2.55;;
69714;SDS011;56981;53.532;49.398;2022-11-24T03:50:02;4.45;;;2.88;;
69714;SDS011;56981;53.532;49.398;2022-11-24T03:52:29;5.82;;;2.92;;
69714;SDS011;56981;53.532;49.398;2022-11-24T03:54:55;5.50;;;2.40;;
69714;SDS011;56981;53.532;49.398;2022-11-24T03:57:21;2.58;;;2.38;;
69714;SDS011;56981;53.532;49.398;2022-11-24T03:59:47;6.20;;;3.30;;
69714;SDS011;56981;53.532;49.398;2022-11-24T04:02:13;5.10;;;2.60;;
69714;SDS011;56981;53.532;49.398;2022-11-24T04:04:39;5.43;;;2.75;;
69714;SDS011;56981;53.532;49.398;2022-11-24T04:07:05;4.20;;;2.42;;
69714;SDS011;56981;53.532;49.398;2022-11-24T04:09:31;3.92;;;2.67;;
69714;SDS011;56981;53.532;49.398;2022-11-24T04:11:57;5.68;;;2.97;;
69714;SDS011;56981;53.532;49.398;2022-11-24T04:14:42;5.05;;;2.78;;
69714;SDS011;56981;53.532;49.398;2022-11-24T04:17:08;6.53;;;2.85;;
69714;SDS011;56981;53.532;49.398;2022-11-24T04:19:34;5.07;;;2.88;;
69714;SDS011;56981;53.532;49.398;2022-11-24T04:22:00;10.13;;;3.22;;
69714;SDS011;56981;53.532;49.398;2022-11-24T04:24:26;8.65;;;3.42;;
69714;SDS011;56981;53.532;49.398;2022-11-24T04:26:52;6.45;;;3.08;;
69714;SDS011;56981;53.532;49.398;2022-11-24T04:29:18;5.05;;;2.75;;
69714;SDS011;56981;53.532;49.398;2022-11-24T04:31:44;4.97;;;2.88;;
69714;SDS011;56981;53.532;49.398;2022-11-24T04:34:10;5.72;;;3.13;;
69714;SDS011;56981;53.532;49.398;2022-11-24T04:36:36;7.13;;;3.20;;
69714;SDS011;56981;53.532;49.398;2022-11-24T04:39:05;6.30;;;3.00;;
69714;SDS011;56981;53.532;49.398;2022-11-24T04:41:31;4.90;;;3.33;;
69714;SDS011;56981;53.532;49.398;2022-11-24T04:43:57;5.78;;;3.10;;
69714;SDS011;56981;53.532;49.398;2022-11-24T04:46:23;5.90;;;2.83;;
69714;SDS011;56981;53.532;49.398;2022-11-24T04:48:49;7.55;;;3.28;;
69714;SDS011;56981;53.532;49.398;2022-11-24T04:51:15;5.78;;;3.15;;
69714;SDS011;56981;53.532;49.398;2022-11-24T04:53:41;5.18;;;2.92;;
69714;SDS011;56981;53.532;49.398;2022-11-24T04:56:07;6.63;;;3.13;;
69714;SDS011;56981;53.532;49.398;2022-11-24T04:58:33;6.03;;;3.03;;
69714;SDS011;56981;53.532;49.398;2022-11-24T05:01:00;6.05;;;3.08;;
69714;SDS011;56981;53.532;49.398;2022-11-24T05:03:26;5.97;;;3.33;;
69714;SDS011;56981;53.532;49.398;2022-11-24T05:05:52;8.82;;;4.82;;
69714;SDS011;56981;53.532;49.398;2022-11-24T05:08:18;7.45;;;3.35;;
69714;SDS011;56981;53.532;49.398;2022-11-24T05:10:44;7.63;;;3.75;;
69714;SDS011;56981;53.532;49.398;2022-11-24T05:13:11;6.57;;;3.83;;
69714;SDS011;56981;53.532;49.398;2022-11-24T05:15:38;8.05;;;3.95;;
69714;SDS011;56981;53.532;49.398;2022-11-24T05:18:12;8.43;;;3.88;;
69714;SDS011;56981;53.532;49.398;2022-11-24T05:20:41;9.80;;;4.70;;
69714;SDS011;56981;53.532;49.398;2022-11-24T05:23:09;8.00;;;4.00;;
69714;SDS011;56981;53.532;49.398;2022-11-24T05:25:35;13.52;;;5.00;;
69714;SDS011;56981;53.532;49.398;2022-11-24T05:28:02;11.25;;;5.30;;
69714;SDS011;56981;53.532;49.398;2022-11-24T05:30:30;10.02;;;4.22;;
69714;SDS011;56981;53.532;49.398;2022-11-24T05:32:57;15.55;;;4.53;;
69714;SDS011;56981;53.532;49.398;2022-11-24T05:35:23;12.00;;;5.05;;
69714;SDS011;56981;53.532;49.398;2022-11-24T05:37:49;12.50;;;4.63;;
69714;SDS011;56981;53.532;49.398;2022-11-24T05:40:16;11.77;;;4.55;;
69714;SDS011;56981;53.532;49.398;2022-11-24T05:42:42;15.88;;;4.60;;
69714;SDS011;56981;53.532;49.398;2022-11-24T05:45:12;10.38;;;4.80;;
69714;SDS011;56981;53.532;49.398;2022-11-24T05:47:42;18.50;;;4.82;;
69714;SDS011;56981;53.532;49.398;2022-11-24T05:50:09;12.27;;;4.43;;
69714;SDS011;56981;53.532;49.398;2022-11-24T05:52:36;14.07;;;4.13;;
69714;SDS011;56981;53.532;49.398;2022-11-24T05:55:03;18.15;;;4.43;;
69714;SDS011;56981;53.532;49.398;2022-11-24T05:57:30;11.15;;;3.70;;
69714;SDS011;56981;53.532;49.398;2022-11-24T05:59:56;27.17;;;5.20;;
69714;SDS011;56981;53.532;49.398;2022-11-24T06:02:23;19.08;;;4.70;;
69714;SDS011;56981;53.532;49.398;2022-11-24T06:04:49;21.23;;;4.95;;
69714;SDS011;56981;53.532;49.398;2022-11-24T06:07:15;21.80;;;4.35;;
69714;SDS011;56981;53.532;49.398;2022-11-24T06:09:41;31.45;;;4.78;;
69714;SDS011;56981;53.532;49.398;2022-11-24T06:12:08;50.72;;;5.75;;
69714;SDS011;56981;53.532;49.398;2022-11-24T06:14:36;40.20;;;6.13;;
69714;SDS011;56981;53.532;49.398;2022-11-24T06:17:02;39.85;;;5.07;;
69714;SDS011;56981;53.532;49.398;2022-11-24T06:19:34;24.65;;;3.67;;
69714;SDS011;56981;53.532;49.398;2022-11-24T06:22:01;23.13;;;4.03;;
69714;SDS011;56981;53.532;49.398;2022-11-24T06:24:27;10.60;;;3.95;;
69714;SDS011;56981;53.532;49.398;2022-11-24T06:26:53;24.40;;;8.60;;
69714;SDS011;56981;53.532;49.398;2022-11-24T06:29:19;11.55;;;4.25;;
69714;SDS011;56981;53.532;49.398;2022-11-24T06:31:44;7.35;;;3.45;;
69714;SDS011;56981;53.532;49.398;2022-11-24T06:34:11;11.27;;;4.30;;
69714;SDS011;56981;53.532;49.398;2022-11-24T06:36:38;11.85;;;4.50;;
69714;SDS011;56981;53.532;49.398;2022-11-24T06:39:04;12.90;;;4.13;;
69714;SDS011;56981;53.532;49.398;2022-11-24T06:41:31;10.52;;;4.15;;
69714;SDS011;56981;53.532;49.398;2022-11-24T06:43:57;12.70;;;4.03;;
69714;SDS011;56981;53.532;49.398;2022-11-24T06:46:23;10.15;;;4.18;;
69714;SDS011;56981;53.532;49.398;2022-11-24T06:48:52;12.38;;;4.38;;
69714;SDS011;56981;53.532;49.398;2022-11-24T06:51:18;8.23;;;4.10;;
69714;SDS011;56981;53.532;49.398;2022-11-24T06:53:44;13.02;;;4.68;;
69714;SDS011;56981;53.532;49.398;2022-11-24T06:56:11;10.80;;;4.15;;
69714;SDS011;56981;53.532;49.398;2022-11-24T06:58:43;12.02;;;4.72;;
69714;SDS011;56981;53.532;49.398;2022-11-24T07:01:17;9.30;;;4.10;;
69714;SDS011;56981;53.532;49.398;2022-11-24T07:03:50;10.05;;;3.97;;
69714;SDS011;56981;53.532;49.398;2022-11-24T07:06:17;8.88;;;3.83;;
69714;SDS011;56981;53.532;49.398;2022-11-24T07:08:45;12.65;;;4.57;;
69714;SDS011;56981;53.532;49.398;2022-11-24T07:11:12;12.50;;;5.10;;
69714;SDS011;56981;53.532;49.398;2022-11-24T07:13:43;15.85;;;5.18;;
69714;SDS011;56981;53.532;49.398;2022-11-24T07:18:45;14.63;;;4.45;;
69714;SDS011;56981;53.532;49.398;2022-11-24T07:21:13;35.75;;;5.50;;
69714;SDS011;56981;53.532;49.398;2022-11-24T07:23:39;27.20;;;5.00;;
69714;SDS011;56981;53.532;49.398;2022-11-24T07:26:06;29.85;;;5.68;;
69714;SDS011;56981;53.532;49.398;2022-11-24T07:28:33;32.03;;;4.82;;
69714;SDS011;56981;53.532;49.398;2022-11-24T07:31:08;12.18;;;4.47;;
69714;SDS011;56981;53.532;49.398;2022-11-24T07:33:37;14.55;;;4.72;;
69714;SDS011;56981;53.532;49.398;2022-11-24T07:36:04;13.77;;;5.95;;
69714;SDS011;56981;53.532;49.398;2022-11-24T07:38:32;16.60;;;4.93;;
69714;SDS011;56981;53.532;49.398;2022-11-24T07:41:02;14.43;;;5.88;;
69714;SDS011;56981;53.532;49.398;2022-11-24T07:43:30;14.32;;;5.05;;
69714;SDS011;56981;53.532;49.398;2022-11-24T07:45:57;20.60;;;5.18;;
69714;SDS011;56981;53.532;49.398;2022-11-24T07:48:23;14.73;;;5.28;;
69714;SDS011;56981;53.532;49.398;2022-11-24T07:50:52;17.38;;;6.55;;
69714;SDS011;56981;53.532;49.398;2022-11-24T07:53:18;12.30;;;5.03;;
69714;SDS011;56981;53.532;49.398;2022-11-24T07:55:54;11.02;;;4.53;;
69714;SDS011;56981;53.532;49.398;2022-11-24T07:58:22;15.40;;;5.47;;
69714;SDS011;56981;53.532;49.398;2022-11-24T08:00:48;10.63;;;4.78;;
69714;SDS011;56981;53.532;49.398;2022-11-24T08:03:14;8.20;;;4.20;;
69714;SDS011;56981;53.532;49.398;2022-11-24T08:05:41;14.13;;;4.53;;
69714;SDS011;56981;53.532;49.398;2022-11-24T08:08:07;11.48;;;4.75;;
69714;SDS011;56981;53.532;49.398;2022-11-24T08:10:33;15.52;;;4.55;;
69714;SDS011;56981;53.532;49.398;2022-11-24T08:12:59;10.50;;;4.53;;
69714;SDS011;56981;53.532;49.398;2022-11-24T08:15:26;12.20;;;4.38;;
69714;SDS011;56981;53.532;49.398;2022-11-24T08:17:52;22.70;;;6.57;;
69714;SDS011;56981;53.532;49.398;2022-11-24T08:20:18;14.63;;;5.05;;
69714;SDS011;56981;53.532;49.398;2022-11-24T08:22:44;25.23;;;6.28;;
69714;SDS011;56981;53.532;49.398;2022-11-24T08:25:11;14.00;;;5.32;;
69714;SDS011;56981;53.532;49.398;2022-11-24T08:27:39;18.25;;;6.18;;
69714;SDS011;56981;53.532;49.398;2022-11-24T08:30:05;22.20;;;6.70;;
69714;SDS011;56981;53.532;49.398;2022-11-24T08:32:32;21.80;;;5.97;;
69714;SDS011;56981;53.532;49.398;2022-11-24T08:34:58;17.30;;;5.93;;
69714;SDS011;56981;53.532;49.398;2022-11-24T08:37:24;19.50;;;5.95;;
69714;SDS011;56981;53.532;49.398;2022-11-24T08:39:52;29.17;;;7.93;;
69714;SDS011;56981;53.532;49.398;2022-11-24T08:42:18;38.35;;;7.90;;
69714;SDS011;56981;53.532;49.398;2022-11-24T08:44:44;30.90;;;7.43;;
69714;SDS011;56981;53.532;49.398;2022-11-24T08:47:10;15.10;;;6.35;;
69714;SDS011;56981;53.532;49.398;2022-11-24T08:49:36;13.05;;;5.18;;
69714;SDS011;56981;53.532;49.398;2022-11-24T08:52:02;10.88;;;4.93;;
69714;SDS011;56981;53.532;49.398;2022-11-24T08:54:28;13.70;;;5.15;;
69714;SDS011;56981;53.532;49.398;2022-11-24T08:56:54;14.52;;;6.30;;
69714;SDS011;56981;53.532;49.398;2022-11-24T08:59:20;9.90;;;4.28;;
69714;SDS011;56981;53.532;49.398;2022-11-24T09:01:46;5.97;;;3.22;;
69714;SDS011;56981;53.532;49.398;2022-11-24T09:04:13;5.13;;;3.05;;
69714;SDS011;56981;53.532;49.398;2022-11-24T09:06:39;4.00;;;3.05;;
69714;SDS011;56981;53.532;49.398;2022-11-24T09:09:05;4.00;;;2.45;;
69714;SDS011;56981;53.532;49.398;2022-11-24T09:11:32;4.43;;;2.63;;
69714;SDS011;56981;53.532;49.398;2022-11-24T09:13:58;5.93;;;3.00;;
69714;SDS011;56981;53.532;49.398;2022-11-24T09:16:25;4.30;;;2.78;;
69714;SDS011;56981;53.532;49.398;2022-11-24T09:19:03;6.45;;;3.75;;
69714;SDS011;56981;53.532;49.398;2022-11-24T09:21:32;6.32;;;3.40;;
69714;SDS011;56981;53.532;49.398;2022-11-24T09:24:02;6.35;;;3.40;;
69714;SDS011;56981;53.532;49.398;2022-11-24T09:26:30;5.72;;;3.10;;
69714;SDS011;56981;53.532;49.398;2022-11-24T09:28:57;5.30;;;3.08;;
69714;SDS011;56981;53.532;49.398;2022-11-24T09:31:26;7.63;;;3.55;;
69714;SDS011;56981;53.532;49.398;2022-11-24T09:33:54;9.90;;;4.05;;
69714;SDS011;56981;53.532;49.398;2022-11-24T09:36:21;11.10;;;3.45;;
69714;SDS011;56981;53.532;49.398;2022-11-24T09:38:48;7.28;;;3.70;;
69714;SDS011;56981;53.532;49.398;2022-11-24T09:46:53;12.25;;;4.72;;
69714;SDS011;56981;53.532;49.398;2022-11-24T09:50:08;11.15;;;5.40;;
69714;SDS011;56981;53.532;49.398;2022-11-24T09:55:51;12.38;;;5.82;;
69714;SDS011;56981;53.532;49.398;2022-11-24T09:58:17;14.30;;;7.90;;
69714;SDS011;56981;53.532;49.398;2022-11-24T10:00:54;10.93;;;4.95;;
69714;SDS011;56981;53.532;49.398;2022-11-24T10:05:57;8.77;;;4.18;;
69714;SDS011;56981;53.532;49.398;2022-11-24T10:08:29;7.47;;;4.35;;
69714;SDS011;56981;53.532;49.398;2022-11-24T10:11:11;10.00;;;4.50;;
69714;SDS011;56981;53.532;49.398;2022-11-24T10:13:52;9.38;;;4.72;;
69714;SDS011;56981;53.532;49.398;2022-11-24T10:27:26;13.02;;;5.55;;
69714;SDS011;56981;53.532;49.398;2022-11-24T10:30:17;11.95;;;4.68;;
69714;SDS011;56981;53.532;49.398;2022-11-24T10:32:47;10.88;;;4.90;;
69714;SDS011;56981;53.532;49.398;2022-11-24T10:35:27;11.07;;;4.45;;
69714;SDS011;56981;53.532;49.398;2022-11-24T10:38:10;10.10;;;4.47;;
69714;SDS011;56981;53.532;49.398;2022-11-24T10:40:55;11.77;;;4.60;;
69714;SDS011;56981;53.532;49.398;2022-11-24T10:43:26;12.70;;;5.32;;
69714;SDS011;56981;53.532;49.398;2022-11-24T10:45:54;14.57;;;5.00;;
69714;SDS011;56981;53.532;49.398;2022-11-24T10:48:25;16.10;;;5.43;;
69714;SDS011;56981;53.532;49.398;2022-11-24T10:50:56;13.00;;;4.68;;
69714;SDS011;56981;53.532;49.398;2022-11-24T10:53:41;22.15;;;5.55;;
69714;SDS011;56981;53.532;49.398;2022-11-24T10:56:09;27.10;;;6.07;;
69714;SDS011;56981;53.532;49.398;2022-11-24T10:58:35;22.52;;;5.65;;
69714;SDS011;56981;53.532;49.398;2022-11-24T11:03:48;14.73;;;5.25;;
69714;SDS011;56981;53.532;49.398;2022-11-24T11:06:20;21.05;;;5.28;;
69714;SDS011;56981;53.532;49.398;2022-11-24T11:08:49;21.58;;;4.88;;
69714;SDS011;56981;53.532;49.398;2022-11-24T11:11:38;22.33;;;6.03;;
69714;SDS011;56981;53.532;49.398;2022-11-24T11:14:05;20.15;;;5.30;;
69714;SDS011;56981;53.532;49.398;2022-11-24T11:16:36;34.03;;;6.30;;
69714;SDS011;56981;53.532;49.398;2022-11-24T11:19:30;22.42;;;5.18;;
69714;SDS011;56981;53.532;49.398;2022-11-24T11:24:48;11.60;;;4.38;;
69714;SDS011;56981;53.532;49.398;2022-11-24T11:27:51;14.02;;;4.85;;
69714;SDS011;56981;53.532;49.398;2022-11-24T11:30:57;10.88;;;4.68;;
69714;SDS011;56981;53.532;49.398;2022-11-24T11:33:30;22.35;;;5.72;;
69714;SDS011;56981;53.532;49.398;2022-11-24T11:35:58;12.98;;;5.75;;
69714;SDS011;56981;53.532;49.398;2022-11-24T11:38:32;24.65;;;7.97;;
69714;SDS011;56981;53.532;49.398;2022-11-24T11:41:03;13.93;;;6.03;;
69714;SDS011;56981;53.532;49.398;2022-11-24T11:43:35;14.80;;;5.53;;
69714;SDS011;56981;53.532;49.398;2022-11-24T11:46:11;17.38;;;5.88;;
69714;SDS011;56981;53.532;49.398;2022-11-24T11:48:43;9.27;;;4.95;;
69714;SDS011;56981;53.532;49.398;2022-11-24T11:57:09;10.70;;;5.32;;
69714;SDS011;56981;53.532;49.398;2022-11-24T11:59:46;13.63;;;5.80;;
69714;SDS011;56981;53.532;49.398;2022-11-24T12:05:23;14.70;;;5.80;;
69714;SDS011;56981;53.532;49.398;2022-11-24T12:10:48;13.15;;;6.50;;
69714;SDS011;56981;53.532;49.398;2022-11-24T12:16:29;16.38;;;6.95;;
69714;SDS011;56981;53.532;49.398;2022-11-24T12:19:14;16.20;;;6.95;;
69714;SDS011;56981;53.532;49.398;2022-11-24T12:24:32;10.57;;;4.80;;
69714;SDS011;56981;53.532;49.398;2022-11-24T12:27:14;19.63;;;8.63;;
69714;SDS011;56981;53.532;49.398;2022-11-24T12:32:59;19.83;;;8.55;;
69714;SDS011;56981;53.532;49.398;2022-11-24T12:43:35;15.73;;;6.85;;
69714;SDS011;56981;53.532;49.398;2022-11-24T12:46:08;14.93;;;6.53;;
69714;SDS011;56981;53.532;49.398;2022-11-24T12:51:47;18.58;;;7.05;;
69714;SDS011;56981;53.532;49.398;2022-11-24T12:54:18;16.00;;;7.72;;
69714;SDS011;56981;53.532;49.398;2022-11-24T12:56:58;17.50;;;7.45;;
69714;SDS011;56981;53.532;49.398;2022-11-24T13:05:21;18.75;;;7.82;;
69714;SDS011;56981;53.532;49.398;2022-11-24T13:07:52;20.45;;;9.15;;
69714;SDS011;56981;53.532;49.398;2022-11-24T13:10:25;18.17;;;8.02;;
69714;SDS011;56981;53.532;49.398;2022-11-24T13:12:54;23.17;;;11.00;;
69714;SDS011;56981;53.532;49.398;2022-11-24T13:15:20;18.17;;;8.40;;
69714;SDS011;56981;53.532;49.398;2022-11-24T13:17:47;21.98;;;8.55;;
69714;SDS011;56981;53.532;49.398;2022-11-24T13:20:34;15.52;;;6.53;;
69714;SDS011;56981;53.532;49.398;2022-11-24T13:23:03;17.27;;;7.45;;
69714;SDS011;56981;53.532;49.398;2022-11-24T13:25:30;15.85;;;6.88;;
69714;SDS011;56981;53.532;49.398;2022-11-24T13:27:59;19.05;;;7.55;;
69714;SDS011;56981;53.532;49.398;2022-11-24T13:35:38;17.73;;;6.38;;
69714;SDS011;56981;53.532;49.398;2022-11-24T13:49:36;14.80;;;6.70;;
69714;SDS011;56981;53.532;49.398;2022-11-24T13:57:48;17.00;;;7.85;;
69714;SDS011;56981;53.532;49.398;2022-11-24T14:02:53;18.33;;;7.00;;
69714;SDS011;56981;53.532;49.398;2022-11-24T14:05:47;19.63;;;7.20;;
69714;SDS011;56981;53.532;49.398;2022-11-24T14:08:17;20.02;;;8.57;;
69714;SDS011;56981;53.532;49.398;2022-11-24T14:10:48;18.58;;;8.15;;
69714;SDS011;56981;53.532;49.398;2022-11-24T14:18:37;19.95;;;8.85;;
69714;SDS011;56981;53.532;49.398;2022-11-24T14:26:33;22.60;;;9.98;;
69714;SDS011;56981;53.532;49.398;2022-11-24T14:29:05;30.63;;;9.13;;
69714;SDS011;56981;53.532;49.398;2022-11-24T14:31:35;27.42;;;10.13;;
69714;SDS011;56981;53.532;49.398;2022-11-24T14:36:39;31.63;;;10.32;;
69714;SDS011;56981;53.532;49.398;2022-11-24T14:39:05;28.00;;;9.88;;
69714;SDS011;56981;53.532;49.398;2022-11-24T14:41:31;31.48;;;10.98;;
69714;SDS011;56981;53.532;49.398;2022-11-24T14:44:18;30.42;;;9.68;;
69714;SDS011;56981;53.532;49.398;2022-11-24T14:46:48;33.67;;;9.65;;
69714;SDS011;56981;53.532;49.398;2022-11-24T14:49:19;31.17;;;9.77;;
69714;SDS011;56981;53.532;49.398;2022-11-24T14:51:56;30.08;;;11.00;;
69714;SDS011;56981;53.532;49.398;2022-11-24T14:54:25;29.92;;;10.55;;
69714;SDS011;56981;53.532;49.398;2022-11-24T14:56:59;26.77;;;10.05;;
69714;SDS011;56981;53.532;49.398;2022-11-24T14:59:31;32.92;;;10.82;;
69714;SDS011;56981;53.532;49.398;2022-11-24T15:02:02;29.55;;;11.23;;
69714;SDS011;56981;53.532;49.398;2022-11-24T15:05:13;28.55;;;10.50;;
69714;SDS011;56981;53.532;49.398;2022-11-24T15:07:40;29.13;;;9.70;;
69714;SDS011;56981;53.532;49.398;2022-11-24T15:12:57;31.05;;;10.98;;
69714;SDS011;56981;53.532;49.398;2022-11-24T15:15:45;35.65;;;12.23;;
69714;SDS011;56981;53.532;49.398;2022-11-24T15:18:25;47.28;;;13.05;;
69714;SDS011;56981;53.532;49.398;2022-11-24T15:21:07;66.13;;;16.38;;
69714;SDS011;56981;53.532;49.398;2022-11-24T15:23:34;47.70;;;12.77;;
69714;SDS011;56981;53.532;49.398;2022-11-24T15:28:29;37.00;;;11.20;;
69714;SDS011;56981;53.532;49.398;2022-11-24T15:31:00;37.88;;;12.15;;
69714;SDS011;56981;53.532;49.398;2022-11-24T15:33:28;37.03;;;10.88;;
69714;SDS011;56981;53.532;49.398;2022-11-24T15:35:58;38.60;;;11.43;;
69714;SDS011;56981;53.532;49.398;2022-11-24T15:38:25;42.38;;;13.10;;
69714;SDS011;56981;53.532;49.398;2022-11-24T15:40:52;32.40;;;11.25;;
69714;SDS011;56981;53.532;49.398;2022-11-24T15:46:01;29.20;;;9.63;;
69714;SDS011;56981;53.532;49.398;2022-11-24T15:48:28;30.00;;;10.02;;
69714;SDS011;56981;53.532;49.398;2022-11-24T15:50:55;33.58;;;10.23;;
69714;SDS011;56981;53.532;49.398;2022-11-24T15:53:24;30.33;;;9.82;;
69714;SDS011;56981;53.532;49.398;2022-11-24T15:55:54;36.38;;;11.10;;
69714;SDS011;56981;53.532;49.398;2022-11-24T15:58:23;36.03;;;10.98;;
69714;SDS011;56981;53.532;49.398;2022-11-24T16:00:50;38.85;;;9.38;;
69714;SDS011;56981;53.532;49.398;2022-11-24T16:03:18;37.97;;;11.15;;
69714;SDS011;56981;53.532;49.398;2022-11-24T16:05:45;49.65;;;11.43;;
69714;SDS011;56981;53.532;49.398;2022-11-24T16:08:29;44.80;;;10.98;;
69714;SDS011;56981;53.532;49.398;2022-11-24T16:10:55;35.97;;;10.85;;
69714;SDS011;56981;53.532;49.398;2022-11-24T16:13:24;32.42;;;9.93;;
69714;SDS011;56981;53.532;49.398;2022-11-24T16:15:50;42.92;;;11.20;;
69714;SDS011;56981;53.532;49.398;2022-11-24T16:18:17;41.65;;;11.50;;
69714;SDS011;56981;53.532;49.398;2022-11-24T16:20:43;34.42;;;10.57;;
69714;SDS011;56981;53.532;49.398;2022-11-24T16:23:09;39.75;;;10.13;;
69714;SDS011;56981;53.532;49.398;2022-11-24T16:25:35;48.03;;;12.60;;
69714;SDS011;56981;53.532;49.398;2022-11-24T16:28:07;46.08;;;13.23;;
69714;SDS011;56981;53.532;49.398;2022-11-24T16:30:36;43.40;;;11.50;;
69714;SDS011;56981;53.532;49.398;2022-11-24T16:33:03;61.75;;;12.15;;
69714;SDS011;56981;53.532;49.398;2022-11-24T16:35:31;48.70;;;11.13;;
69714;SDS011;56981;53.532;49.398;2022-11-24T16:37:57;45.60;;;10.65;;
69714;SDS011;56981;53.532;49.398;2022-11-24T16:40:24;47.42;;;11.50;;